sensor_id;sensor_type;location;lat;lon;timestamp;pressure;altitude;pressure_sealevel;temperature;humidity
75312;BME280;63906;55.686;37.532;2024-01-06T00:00:22;99026.69;;;-16.93;71.81
75312;BME280;63906;55.686;37.532;2024-01-06T00:05:23;99110.88;;;-16.34;71.94
75312;BME280;63906;55.686;37.532;2024-01-06T00:10:23;99053.50;;;-16.58;71.54
75312;BME280;63906;55.686;37.532;2024-01-06T00:15:24;99028.75;;;-16.39;72.69
75312;BME280;63906;55.686;37.532;2024-01-06T00:20:24;99032.31;;;-16.15;72.71
75312;BME280;63906;55.686;37.532;2024-01-06T00:25:25;99035.34;;;-16.35;72.84
75312;BME280;63906;55.686;37.532;2024-01-06T00:30:25;99049.38;;;-16.61;72.25
75312;BME280;63906;55.686;37.532;2024-01-06T00:35:26;99023.00;;;-16.80;73.18
75312;BME280;63906;55.686;37.532;2024-01-06T00:40:26;99087.38;;;-16.34;72.72
75312;BME280;63906;55.686;37.532;2024-01-06T00:45:27;99085.47;;;-16.24;73.65
75312;BME280;63906;55.686;37.532;2024-01-06T00:50:27;99005.84;;;-16.64;74.29
75312;BME280;63906;55.686;37.532;2024-01-06T00:55:28;99111.25;;;-16.15;74.04
75312;BME280;63906;55.686;37.532;2024-01-06T01:00:28;99111.72;;;-16.35;72.77
75312;BME280;63906;55.686;37.532;2024-01-06T01:05:28;99039.06;;;-16.50;73.18
75312;BME280;63906;55.686;37.532;2024-01-06T01:10:29;98994.41;;;-16.77;72.08
75312;BME280;63906;55.686;37.532;2024-01-06T01:15:29;99136.22;;;-15.70;74.02
75312;BME280;63906;55.686;37.532;2024-01-06T01:20:30;99100.56;;;-15.89;73.07
75312;BME280;63906;55.686;37.532;2024-01-06T01:25:30;99044.78;;;-16.43;69.84
75312;BME280;63906;55.686;37.532;2024-01-06T01:30:31;99042.50;;;-16.54;70.89
75312;BME280;63906;55.686;37.532;2024-01-06T01:35:32;99050.69;;;-16.44;72.06
75312;BME280;63906;55.686;37.532;2024-01-06T01:40:33;99082.09;;;-15.91;71.96
75312;BME280;63906;55.686;37.532;2024-01-06T01:45:33;99043.66;;;-16.32;71.44
75312;BME280;63906;55.686;37.532;2024-01-06T01:50:34;99031.06;;;-16.32;71.16
75312;BME280;63906;55.686;37.532;2024-01-06T01:55:34;99072.72;;;-16.18;71.86
75312;BME280;63906;55.686;37.532;2024-01-06T02:00:35;99028.50;;;-16.30;72.21
75312;BME280;63906;55.686;37.532;2024-01-06T02:05:35;99078.75;;;-15.91;71.15
75312;BME280;63906;55.686;37.532;2024-01-06T02:10:36;99098.00;;;-15.87;71.51
75312;BME280;63906;55.686;37.532;2024-01-06T02:15:36;99036.84;;;-16.28;71.92
75312;BME280;63906;55.686;37.532;2024-01-06T02:20:37;99102.56;;;-15.69;73.29
75312;BME280;63906;55.686;37.532;2024-01-06T02:25:42;99114.72;;;-15.52;73.88
75312;BME280;63906;55.686;37.532;2024-01-06T02:30:43;99103.44;;;-15.71;73.61
75312;BME280;63906;55.686;37.532;2024-01-06T02:35:43;99116.97;;;-15.43;74.59
75312;BME280;63906;55.686;37.532;2024-01-06T02:40:59;99099.09;;;-15.65;73.46
75312;BME280;63906;55.686;37.532;2024-01-06T02:45:59;99119.19;;;-15.96;73.72
75312;BME280;63906;55.686;37.532;2024-01-06T02:51:00;99124.38;;;-15.68;74.90
75312;BME280;63906;55.686;37.532;2024-01-06T02:56:00;99129.19;;;-15.60;74.13
75312;BME280;63906;55.686;37.532;2024-01-06T03:01:01;99033.59;;;-15.99;74.99
75312;BME280;63906;55.686;37.532;2024-01-06T03:06:01;99070.06;;;-15.80;74.68
75312;BME280;63906;55.686;37.532;2024-01-06T03:11:02;99115.06;;;-15.64;73.82
75312;BME280;63906;55.686;37.532;2024-01-06T03:16:04;99105.03;;;-15.36;74.65
75312;BME280;63906;55.686;37.532;2024-01-06T03:21:20;99054.06;;;-15.79;74.20
75312;BME280;63906;55.686;37.532;2024-01-06T03:26:21;98975.56;;;-16.28;73.98
75312;BME280;63906;55.686;37.532;2024-01-06T03:31:21;99101.97;;;-15.48;74.38
75312;BME280;63906;55.686;37.532;2024-01-06T03:36:22;99100.81;;;-15.36;73.96
75312;BME280;63906;55.686;37.532;2024-01-06T03:41:22;99109.19;;;-15.34;74.53
75312;BME280;63906;55.686;37.532;2024-01-06T03:46:23;99147.25;;;-15.12;73.73
75312;BME280;63906;55.686;37.532;2024-01-06T03:51:24;99118.94;;;-15.54;74.18
75312;BME280;63906;55.686;37.532;2024-01-06T03:56:24;99041.78;;;-15.91;75.50
75312;BME280;63906;55.686;37.532;2024-01-06T04:01:25;99093.31;;;-15.68;74.23
75312;BME280;63906;55.686;37.532;2024-01-06T04:06:25;99105.31;;;-15.47;75.30
75312;BME280;63906;55.686;37.532;2024-01-06T04:11:25;99104.63;;;-15.52;74.36
75312;BME280;63906;55.686;37.532;2024-01-06T04:16:26;99114.72;;;-15.52;74.22
75312;BME280;63906;55.686;37.532;2024-01-06T04:21:29;99046.47;;;-15.77;75.06
75312;BME280;63906;55.686;37.532;2024-01-06T04:26:30;99094.59;;;-15.55;73.46
75312;BME280;63906;55.686;37.532;2024-01-06T04:31:30;99108.38;;;-15.36;74.04
75312;BME280;63906;55.686;37.532;2024-01-06T04:36:31;99101.94;;;-15.16;75.36
75312;BME280;63906;55.686;37.532;2024-01-06T04:41:31;99118.03;;;-14.91;75.00
75312;BME280;63906;55.686;37.532;2024-01-06T04:46:32;99069.03;;;-15.43;74.73
75312;BME280;63906;55.686;37.532;2024-01-06T04:51:33;99060.53;;;-16.01;72.18
75312;BME280;63906;55.686;37.532;2024-01-06T04:56:33;99063.53;;;-15.87;74.78
75312;BME280;63906;55.686;37.532;2024-01-06T05:01:34;99147.13;;;-15.69;74.25
75312;BME280;63906;55.686;37.532;2024-01-06T05:06:34;99148.44;;;-15.89;74.70
75312;BME280;63906;55.686;37.532;2024-01-06T05:11:35;99140.47;;;-16.06;75.44
75312;BME280;63906;55.686;37.532;2024-01-06T05:16:35;99066.28;;;-16.66;74.80
75312;BME280;63906;55.686;37.532;2024-01-06T05:21:36;99139.53;;;-16.02;75.22
75312;BME280;63906;55.686;37.532;2024-01-06T05:26:36;99163.78;;;-15.98;74.80
75312;BME280;63906;55.686;37.532;2024-01-06T05:31:37;99148.06;;;-16.08;74.74
75312;BME280;63906;55.686;37.532;2024-01-06T05:36:37;99141.69;;;-16.22;72.03
75312;BME280;63906;55.686;37.532;2024-01-06T05:41:38;99154.84;;;-16.11;74.40
75312;BME280;63906;55.686;37.532;2024-01-06T05:46:39;99141.25;;;-16.04;74.71
75312;BME280;63906;55.686;37.532;2024-01-06T05:51:44;99061.50;;;-16.39;74.64
75312;BME280;63906;55.686;37.532;2024-01-06T05:56:45;99133.38;;;-15.92;74.66
75312;BME280;63906;55.686;37.532;2024-01-06T06:01:47;99140.09;;;-15.58;75.37
75312;BME280;63906;55.686;37.532;2024-01-06T06:06:47;99178.63;;;-15.20;75.77
75312;BME280;63906;55.686;37.532;2024-01-06T06:11:48;99021.97;;;-16.05;75.12
75312;BME280;63906;55.686;37.532;2024-01-06T06:16:48;99167.88;;;-14.98;76.00
75312;BME280;63906;55.686;37.532;2024-01-06T06:21:49;99189.06;;;-15.03;75.19
75312;BME280;63906;55.686;37.532;2024-01-06T06:26:49;99192.72;;;-15.13;75.67
75312;BME280;63906;55.686;37.532;2024-01-06T06:31:50;99117.13;;;-15.49;75.94
75312;BME280;63906;55.686;37.532;2024-01-06T06:36:50;99148.84;;;-15.39;75.27
75312;BME280;63906;55.686;37.532;2024-01-06T06:41:50;99185.06;;;-15.10;75.08
75312;BME280;63906;55.686;37.532;2024-01-06T06:46:51;99176.16;;;-15.24;75.13
75312;BME280;63906;55.686;37.532;2024-01-06T06:51:51;99135.28;;;-15.67;72.96
75312;BME280;63906;55.686;37.532;2024-01-06T06:56:52;99132.97;;;-15.44;74.60
75312;BME280;63906;55.686;37.532;2024-01-06T07:01:52;99178.63;;;-15.20;74.63
75312;BME280;63906;55.686;37.532;2024-01-06T07:06:53;99178.56;;;-14.88;74.58
75312;BME280;63906;55.686;37.532;2024-01-06T07:11:53;99126.63;;;-15.26;73.56
75312;BME280;63906;55.686;37.532;2024-01-06T07:16:54;99174.66;;;-14.69;75.83
75312;BME280;63906;55.686;37.532;2024-01-06T07:21:54;99110.78;;;-15.31;74.28
75312;BME280;63906;55.686;37.532;2024-01-06T07:26:55;99124.72;;;-15.18;74.50
75312;BME280;63906;55.686;37.532;2024-01-06T07:31:55;99216.66;;;-14.64;74.14
75312;BME280;63906;55.686;37.532;2024-01-06T07:36:56;99140.25;;;-14.73;74.89
75312;BME280;63906;55.686;37.532;2024-01-06T07:41:57;99201.75;;;-14.46;73.18
75312;BME280;63906;55.686;37.532;2024-01-06T07:46:58;99205.25;;;-14.22;73.89
75312;BME280;63906;55.686;37.532;2024-01-06T07:51:58;99218.00;;;-13.98;75.19
75312;BME280;63906;55.686;37.532;2024-01-06T07:56:59;99201.44;;;-13.80;74.59
75312;BME280;63906;55.686;37.532;2024-01-06T08:01:59;99185.56;;;-14.12;73.61
75312;BME280;63906;55.686;37.532;2024-01-06T08:07:00;99117.59;;;-14.48;73.47
75312;BME280;63906;55.686;37.532;2024-01-06T08:12:01;99114.06;;;-14.16;73.70
75312;BME280;63906;55.686;37.532;2024-01-06T08:17:02;99175.44;;;-13.84;73.47
75312;BME280;63906;55.686;37.532;2024-01-06T08:22:03;99182.69;;;-13.48;74.09
75312;BME280;63906;55.686;37.532;2024-01-06T08:27:04;99165.78;;;-13.46;74.56
75312;BME280;63906;55.686;37.532;2024-01-06T08:32:05;99103.34;;;-13.97;73.79
75312;BME280;63906;55.686;37.532;2024-01-06T08:37:06;99188.56;;;-13.23;74.71
75312;BME280;63906;55.686;37.532;2024-01-06T08:42:06;99190.09;;;-13.19;74.58
75312;BME280;63906;55.686;37.532;2024-01-06T08:47:07;99176.22;;;-12.84;74.03
75312;BME280;63906;55.686;37.532;2024-01-06T08:52:07;99174.28;;;-13.00;72.69
75312;BME280;63906;55.686;37.532;2024-01-06T08:57:07;99165.09;;;-13.03;73.56
75312;BME280;63906;55.686;37.532;2024-01-06T09:02:08;99194.78;;;-12.83;72.90
75312;BME280;63906;55.686;37.532;2024-01-06T09:07:08;99125.16;;;-12.96;72.92
75312;BME280;63906;55.686;37.532;2024-01-06T09:12:10;99074.75;;;-13.02;72.69
75312;BME280;63906;55.686;37.532;2024-01-06T09:17:11;99134.03;;;-12.39;75.02
75312;BME280;63906;55.686;37.532;2024-01-06T09:22:12;99094.63;;;-12.70;73.86
75312;BME280;63906;55.686;37.532;2024-01-06T09:27:13;99064.53;;;-12.78;72.51
75312;BME280;63906;55.686;37.532;2024-01-06T09:32:15;99079.22;;;-12.87;71.69
75312;BME280;63906;55.686;37.532;2024-01-06T09:37:15;99155.06;;;-12.37;71.83
75312;BME280;63906;55.686;37.532;2024-01-06T09:42:16;99126.03;;;-12.08;74.29
75312;BME280;63906;55.686;37.532;2024-01-06T09:47:18;99147.91;;;-12.06;74.16
75312;BME280;63906;55.686;37.532;2024-01-06T09:52:22;99108.59;;;-12.38;73.68
75312;BME280;63906;55.686;37.532;2024-01-06T09:57:23;99101.72;;;-12.34;73.38
75312;BME280;63906;55.686;37.532;2024-01-06T10:02:24;99058.97;;;-12.65;69.96
75312;BME280;63906;55.686;37.532;2024-01-06T10:07:28;99068.56;;;-12.30;73.07
75312;BME280;63906;55.686;37.532;2024-01-06T10:12:28;99113.53;;;-12.13;72.07
75312;BME280;63906;55.686;37.532;2024-01-06T10:17:29;99043.19;;;-12.72;73.52
75312;BME280;63906;55.686;37.532;2024-01-06T10:22:29;99117.38;;;-12.03;69.72
75312;BME280;63906;55.686;37.532;2024-01-06T10:27:29;99033.19;;;-12.55;72.91
75312;BME280;63906;55.686;37.532;2024-01-06T10:32:34;99095.03;;;-12.37;70.46
75312;BME280;63906;55.686;37.532;2024-01-06T10:37:37;99110.41;;;-12.19;73.16
75312;BME280;63906;55.686;37.532;2024-01-06T10:42:39;99057.91;;;-12.38;73.73
75312;BME280;63906;55.686;37.532;2024-01-06T10:47:43;99058.03;;;-12.41;73.04
75312;BME280;63906;55.686;37.532;2024-01-06T10:52:44;99087.66;;;-12.21;72.06
75312;BME280;63906;55.686;37.532;2024-01-06T10:57:46;99078.53;;;-12.25;73.36
75312;BME280;63906;55.686;37.532;2024-01-06T11:02:48;99108.59;;;-12.16;72.94
75312;BME280;63906;55.686;37.532;2024-01-06T11:07:53;99021.34;;;-12.32;72.60
75312;BME280;63906;55.686;37.532;2024-01-06T11:13:08;99077.75;;;-11.85;73.62
75312;BME280;63906;55.686;37.532;2024-01-06T11:18:19;99083.66;;;-11.84;71.74
75312;BME280;63906;55.686;37.532;2024-01-06T11:23:30;99024.44;;;-12.26;74.85
75312;BME280;63906;55.686;37.532;2024-01-06T11:28:45;99079.59;;;-12.31;74.09
75312;BME280;63906;55.686;37.532;2024-01-06T11:33:50;99000.38;;;-12.58;75.28
75312;BME280;63906;55.686;37.532;2024-01-06T11:38:51;99016.84;;;-12.68;75.27
75312;BME280;63906;55.686;37.532;2024-01-06T11:43:52;99095.81;;;-12.35;74.40
75312;BME280;63906;55.686;37.532;2024-01-06T11:48:53;99052.13;;;-12.41;75.86
75312;BME280;63906;55.686;37.532;2024-01-06T11:53:54;99001.22;;;-13.01;75.10
75312;BME280;63906;55.686;37.532;2024-01-06T11:58:54;99068.91;;;-12.17;77.01
75312;BME280;63906;55.686;37.532;2024-01-06T12:03:56;99118.38;;;-11.86;76.27
75312;BME280;63906;55.686;37.532;2024-01-06T12:09:08;99114.38;;;-11.72;77.27
75312;BME280;63906;55.686;37.532;2024-01-06T12:14:08;99119.91;;;-12.03;76.62
75312;BME280;63906;55.686;37.532;2024-01-06T12:19:08;99016.84;;;-12.68;77.15
75312;BME280;63906;55.686;37.532;2024-01-06T12:24:16;99104.53;;;-12.20;76.80
75312;BME280;63906;55.686;37.532;2024-01-06T12:29:18;99113.03;;;-12.21;77.33
75312;BME280;63906;55.686;37.532;2024-01-06T12:34:20;99121.09;;;-12.33;77.31
75312;BME280;63906;55.686;37.532;2024-01-06T12:39:21;99118.63;;;-12.57;76.64
75312;BME280;63906;55.686;37.532;2024-01-06T12:44:21;99113.94;;;-12.89;74.85
75312;BME280;63906;55.686;37.532;2024-01-06T12:49:22;99123.41;;;-12.94;75.35
75312;BME280;63906;55.686;37.532;2024-01-06T12:54:22;99064.59;;;-13.24;76.12
75312;BME280;63906;55.686;37.532;2024-01-06T12:59:23;99130.16;;;-12.71;76.84
75312;BME280;63906;55.686;37.532;2024-01-06T13:04:23;99152.78;;;-12.67;76.68
75312;BME280;63906;55.686;37.532;2024-01-06T13:09:24;99098.84;;;-13.16;76.12
75312;BME280;63906;55.686;37.532;2024-01-06T13:14:25;99140.47;;;-12.99;76.59
75312;BME280;63906;55.686;37.532;2024-01-06T13:19:25;99161.03;;;-12.84;76.86
75312;BME280;63906;55.686;37.532;2024-01-06T13:24:26;99147.72;;;-12.67;77.78
75312;BME280;63906;55.686;37.532;2024-01-06T13:29:26;99082.88;;;-13.18;77.33
75312;BME280;63906;55.686;37.532;2024-01-06T13:34:27;99146.25;;;-12.96;77.57
75312;BME280;63906;55.686;37.532;2024-01-06T13:39:30;98991.25;;;-13.98;77.42
75312;BME280;63906;55.686;37.532;2024-01-06T13:44:30;99143.72;;;-12.72;78.32
75312;BME280;63906;55.686;37.532;2024-01-06T13:49:31;99144.09;;;-12.83;78.49
75312;BME280;63906;55.686;37.532;2024-01-06T13:54:31;99134.19;;;-13.13;77.52
75312;BME280;63906;55.686;37.532;2024-01-06T13:59:32;99155.13;;;-13.08;77.03
75312;BME280;63906;55.686;37.532;2024-01-06T14:04:32;99176.94;;;-13.04;77.24
75312;BME280;63906;55.686;37.532;2024-01-06T14:09:33;99170.09;;;-13.25;76.95
75312;BME280;63906;55.686;37.532;2024-01-06T14:14:34;99094.03;;;-13.45;77.87
75312;BME280;63906;55.686;37.532;2024-01-06T14:19:34;99166.53;;;-12.96;77.98
75312;BME280;63906;55.686;37.532;2024-01-06T14:24:35;99099.31;;;-13.28;78.08
75312;BME280;63906;55.686;37.532;2024-01-06T14:29:36;99119.38;;;-13.22;77.69
75312;BME280;63906;55.686;37.532;2024-01-06T14:34:38;99173.09;;;-12.90;77.96
75312;BME280;63906;55.686;37.532;2024-01-06T14:39:38;99147.91;;;-12.95;78.54
75312;BME280;63906;55.686;37.532;2024-01-06T14:44:39;99186.75;;;-12.71;78.41
75312;BME280;63906;55.686;37.532;2024-01-06T14:49:39;99144.03;;;-12.82;79.05
75312;BME280;63906;55.686;37.532;2024-01-06T14:54:40;99190.38;;;-12.33;78.23
75312;BME280;63906;55.686;37.532;2024-01-06T14:59:40;99183.75;;;-12.35;77.55
75312;BME280;63906;55.686;37.532;2024-01-06T15:04:41;99172.59;;;-12.55;78.52
75312;BME280;63906;55.686;37.532;2024-01-06T15:09:41;99142.91;;;-12.73;78.94
75312;BME280;63906;55.686;37.532;2024-01-06T15:14:42;99208.97;;;-12.32;79.24
75312;BME280;63906;55.686;37.532;2024-01-06T15:19:42;99206.19;;;-12.48;78.72
75312;BME280;63906;55.686;37.532;2024-01-06T15:24:43;99214.69;;;-12.27;79.24
75312;BME280;63906;55.686;37.532;2024-01-06T15:29:44;99207.41;;;-12.36;78.35
75312;BME280;63906;55.686;37.532;2024-01-06T15:34:45;99206.22;;;-12.50;77.70
75312;BME280;63906;55.686;37.532;2024-01-06T15:39:45;98995.59;;;-13.76;77.83
75312;BME280;63906;55.686;37.532;2024-01-06T15:44:46;99171.09;;;-12.59;78.72
75312;BME280;63906;55.686;37.532;2024-01-06T15:49:46;99202.31;;;-12.35;77.82
75312;BME280;63906;55.686;37.532;2024-01-06T15:54:50;99193.00;;;-12.58;77.71
75312;BME280;63906;55.686;37.532;2024-01-06T15:59:50;99212.06;;;-12.47;78.06
75312;BME280;63906;55.686;37.532;2024-01-06T16:04:51;99223.94;;;-12.26;78.49
75312;BME280;63906;55.686;37.532;2024-01-06T16:09:52;99257.44;;;-12.18;77.99
75312;BME280;63906;55.686;37.532;2024-01-06T16:14:52;99188.03;;;-12.61;78.06
75312;BME280;63906;55.686;37.532;2024-01-06T16:19:53;99254.91;;;-12.18;78.61
75312;BME280;63906;55.686;37.532;2024-01-06T16:24:53;99250.13;;;-12.26;79.11
75312;BME280;63906;55.686;37.532;2024-01-06T16:29:54;99230.22;;;-12.36;79.38
75312;BME280;63906;55.686;37.532;2024-01-06T16:34:54;99252.97;;;-12.11;79.43
75312;BME280;63906;55.686;37.532;2024-01-06T16:39:55;99246.47;;;-12.18;79.53
75312;BME280;63906;55.686;37.532;2024-01-06T16:44:55;99225.28;;;-12.39;79.63
75312;BME280;63906;55.686;37.532;2024-01-06T16:49:56;99250.25;;;-12.29;78.71
75312;BME280;63906;55.686;37.532;2024-01-06T16:54:56;99270.31;;;-12.23;79.18
75312;BME280;63906;55.686;37.532;2024-01-06T16:59:57;99296.38;;;-12.19;79.07
75312;BME280;63906;55.686;37.532;2024-01-06T17:04:58;99277.78;;;-12.41;79.07
75312;BME280;63906;55.686;37.532;2024-01-06T17:09:58;99279.63;;;-12.46;79.30
75312;BME280;63906;55.686;37.532;2024-01-06T17:15:01;99276.66;;;-12.58;79.11
75312;BME280;63906;55.686;37.532;2024-01-06T17:20:01;99235.38;;;-13.10;79.64
75312;BME280;63906;55.686;37.532;2024-01-06T17:25:02;99259.22;;;-12.92;79.64
75312;BME280;63906;55.686;37.532;2024-01-06T17:30:03;99297.09;;;-12.87;79.84
75312;BME280;63906;55.686;37.532;2024-01-06T17:35:04;99246.56;;;-13.40;80.57
75312;BME280;63906;55.686;37.532;2024-01-06T17:40:05;99297.69;;;-13.31;80.81
75312;BME280;63906;55.686;37.532;2024-01-06T17:45:06;99285.16;;;-13.34;81.15
75312;BME280;63906;55.686;37.532;2024-01-06T17:50:06;99306.09;;;-13.04;81.02
75312;BME280;63906;55.686;37.532;2024-01-06T17:55:07;99276.28;;;-13.20;80.34
75312;BME280;63906;55.686;37.532;2024-01-06T18:00:08;99266.44;;;-13.56;81.14
75312;BME280;63906;55.686;37.532;2024-01-06T18:05:09;99330.00;;;-13.12;80.54
75312;BME280;63906;55.686;37.532;2024-01-06T18:10:10;99284.97;;;-13.29;79.69
75312;BME280;63906;55.686;37.532;2024-01-06T18:15:10;99336.75;;;-13.13;79.16
75312;BME280;63906;55.686;37.532;2024-01-06T18:20:11;99321.75;;;-13.44;79.37
75312;BME280;63906;55.686;37.532;2024-01-06T18:25:12;99337.13;;;-13.50;79.70
75312;BME280;63906;55.686;37.532;2024-01-06T18:30:12;99365.59;;;-13.43;79.26
75312;BME280;63906;55.686;37.532;2024-01-06T18:35:13;99272.97;;;-14.03;79.64
75312;BME280;63906;55.686;37.532;2024-01-06T18:45:33;99356.38;;;-13.74;79.52
75312;BME280;63906;55.686;37.532;2024-01-06T18:50:33;99371.75;;;-13.80;79.33
75312;BME280;63906;55.686;37.532;2024-01-06T18:55:34;99347.97;;;-14.02;79.37
75312;BME280;63906;55.686;37.532;2024-01-06T19:00:34;99283.63;;;-14.51;79.40
75312;BME280;63906;55.686;37.532;2024-01-06T19:05:35;99369.25;;;-14.11;79.46
75312;BME280;63906;55.686;37.532;2024-01-06T19:10:36;99349.03;;;-14.42;78.83
75312;BME280;63906;55.686;37.532;2024-01-06T19:15:37;99319.50;;;-14.70;79.12
75312;BME280;63906;55.686;37.532;2024-01-06T19:20:43;99340.63;;;-14.74;78.78
75312;BME280;63906;55.686;37.532;2024-01-06T19:25:45;99316.28;;;-15.09;78.65
75312;BME280;63906;55.686;37.532;2024-01-06T19:30:46;99330.59;;;-15.09;79.07
75312;BME280;63906;55.686;37.532;2024-01-06T19:35:46;99393.78;;;-14.78;79.10
75312;BME280;63906;55.686;37.532;2024-01-06T19:40:47;99401.22;;;-14.72;78.78
75312;BME280;63906;55.686;37.532;2024-01-06T19:45:51;99404.81;;;-14.81;78.66
75312;BME280;63906;55.686;37.532;2024-01-06T19:50:52;99406.16;;;-15.03;79.20
75312;BME280;63906;55.686;37.532;2024-01-06T19:55:52;99407.94;;;-15.07;79.03
75312;BME280;63906;55.686;37.532;2024-01-06T20:00:53;99422.19;;;-15.04;78.33
75312;BME280;63906;55.686;37.532;2024-01-06T20:05:53;99415.81;;;-15.19;78.12
75312;BME280;63906;55.686;37.532;2024-01-06T20:10:54;99436.03;;;-15.22;77.83
75312;BME280;63906;55.686;37.532;2024-01-06T20:16:00;99409.97;;;-15.60;77.92
75312;BME280;63906;55.686;37.532;2024-01-06T20:21:02;99439.34;;;-15.57;77.87
75312;BME280;63906;55.686;37.532;2024-01-06T20:26:03;99446.25;;;-15.65;78.31
75312;BME280;63906;55.686;37.532;2024-01-06T20:31:04;99446.34;;;-15.68;78.97
75312;BME280;63906;55.686;37.532;2024-01-06T20:36:04;99470.63;;;-15.64;78.57
75312;BME280;63906;55.686;37.532;2024-01-06T20:41:07;99456.59;;;-15.78;78.26
75312;BME280;63906;55.686;37.532;2024-01-06T20:46:16;99468.34;;;-15.77;77.99
75312;BME280;63906;55.686;37.532;2024-01-06T20:51:16;99466.91;;;-15.90;77.89
75312;BME280;63906;55.686;37.532;2024-01-06T20:56:20;99469.47;;;-15.91;78.12
75312;BME280;63906;55.686;37.532;2024-01-06T21:01:22;99515.50;;;-15.82;78.12
75312;BME280;63906;55.686;37.532;2024-01-06T21:06:22;99526.56;;;-15.89;78.49
75312;BME280;63906;55.686;37.532;2024-01-06T21:11:23;99455.41;;;-16.03;78.53
75312;BME280;63906;55.686;37.532;2024-01-06T21:16:23;99475.09;;;-15.79;78.46
75312;BME280;63906;55.686;37.532;2024-01-06T21:21:24;99482.22;;;-15.57;78.59
75312;BME280;63906;55.686;37.532;2024-01-06T21:26:25;99497.25;;;-15.53;78.09
75312;BME280;63906;55.686;37.532;2024-01-06T21:31:26;99505.56;;;-15.46;78.35
75312;BME280;63906;55.686;37.532;2024-01-06T21:36:27;99512.13;;;-15.40;77.84
75312;BME280;63906;55.686;37.532;2024-01-06T21:41:28;99500.38;;;-15.40;78.23
75312;BME280;63906;55.686;37.532;2024-01-06T21:46:29;99531.63;;;-15.47;78.31
75312;BME280;63906;55.686;37.532;2024-01-06T21:51:29;99484.94;;;-15.66;77.89
75312;BME280;63906;55.686;37.532;2024-01-06T21:56:30;99539.94;;;-15.42;78.17
75312;BME280;63906;55.686;37.532;2024-01-06T22:01:30;99533.53;;;-15.58;78.35
75312;BME280;63906;55.686;37.532;2024-01-06T22:06:32;99563.56;;;-15.46;78.39
75312;BME280;63906;55.686;37.532;2024-01-06T22:11:37;99561.16;;;-15.52;77.94
75312;BME280;63906;55.686;37.532;2024-01-06T22:16:38;99547.81;;;-15.59;78.35
75312;BME280;63906;55.686;37.532;2024-01-06T22:21:42;99481.31;;;-15.96;77.63
75312;BME280;63906;55.686;37.532;2024-01-06T22:26:43;99568.84;;;-15.58;77.91
75312;BME280;63906;55.686;37.532;2024-01-06T22:31:43;99559.03;;;-15.70;78.18
75312;BME280;63906;55.686;37.532;2024-01-06T22:36:47;99594.25;;;-15.67;77.72
75312;BME280;63906;55.686;37.532;2024-01-06T22:41:47;99594.56;;;-15.86;77.85
75312;BME280;63906;55.686;37.532;2024-01-06T22:46:48;99598.81;;;-15.88;77.90
75312;BME280;63906;55.686;37.532;2024-01-06T22:51:49;99616.56;;;-15.94;77.54
75312;BME280;63906;55.686;37.532;2024-01-06T22:56:49;99515.97;;;-16.59;77.49
75312;BME280;63906;55.686;37.532;2024-01-06T23:01:53;99664.50;;;-15.95;77.64
75312;BME280;63906;55.686;37.532;2024-01-06T23:06:54;99642.94;;;-16.13;77.93
75312;BME280;63906;55.686;37.532;2024-01-06T23:11:54;99634.69;;;-16.24;77.50
75312;BME280;63906;55.686;37.532;2024-01-06T23:16:55;99670.59;;;-16.10;77.90
75312;BME280;63906;55.686;37.532;2024-01-06T23:21:56;99677.53;;;-16.24;77.72
75312;BME280;63906;55.686;37.532;2024-01-06T23:26:56;99667.53;;;-16.31;77.65
75312;BME280;63906;55.686;37.532;2024-01-06T23:31:57;99674.28;;;-16.33;77.57
75312;BME280;63906;55.686;37.532;2024-01-06T23:36:58;99708.63;;;-16.27;77.51
75312;BME280;63906;55.686;37.532;2024-01-06T23:41:58;99688.72;;;-16.44;77.69
75312;BME280;63906;55.686;37.532;2024-01-06T23:46:59;99703.84;;;-16.47;77.35
75312;BME280;63906;55.686;37.532;2024-01-06T23:51:59;99700.75;;;-16.64;77.94
75312;BME280;63906;55.686;37.532;2024-01-06T23:57:00;99693.13;;;-16.61;77.86
